Archiv-/Tagesdaten

--Timestamp---	Temp	Chill	HIndex	Humid	Dewpt	Wind	HiWind	WindDir	Rain	Barom	        Solar	ET	UV
--------------	----	-----	------	-----	-----	----	------	-------	----	-----	        -----	--	--
20080713 00:05	15.0	15.0	15.0	91	13.5	0	3	270	0.00	1011.619	0	0.000	0
20080713 00:10	15.0	15.0	15.0	91	13.5	2	5	270	0.00	1011.179	0	0.000	0
20080713 00:15	15.0	15.0	15.0	90	13.4	0	3	270	0.00	1011.517	0	0.000	0
20080713 00:20	15.0	15.0	15.0	91	13.5	0	3	270	0.00	1011.517	0	0.000	0
20080713 00:25	14.9	14.9	14.9	91	13.5	0	2	270	0.00	1011.585	0	0.000	0
20080713 00:30	14.9	14.9	14.9	91	13.4	0	2	270	0.00	1011.619	0	0.000	0
20080713 00:35	14.9	14.9	14.9	91	13.5	0	3	270	0.00	1011.517	0	0.000	0
20080713 00:40	14.9	14.9	14.9	91	13.5	0	3	270	0.00	1011.619	0	0.000	0
20080713 00:45	14.9	14.9	14.9	90	13.3	0	3	270	0.00	1011.517	0	0.000	0
20080713 00:50	14.9	14.9	14.9	90	13.3	0	2	270	0.00	1011.382	0	0.000	0
20080713 00:55	14.9	14.9	14.9	90	13.3	0	3	270	0.00	1011.314	0	0.000	0
20080713 01:00	14.9	14.9	14.9	90	13.3	0	3	270	0.00	1011.314	0	0.000	0
20080713 01:05	14.9	14.9	14.9	90	13.3	0	3	270	0.00	1011.483	0	0.000	0
20080713 01:10	14.9	14.9	14.9	91	13.5	0	3	270	0.00	1011.619	0	0.000	0
20080713 01:15	15.0	15.0	15.0	91	13.5	0	2	270	0.00	1011.585	0	0.000	0
20080713 01:20	15.0	15.0	15.0	91	13.5	0	3	157	0.00	1011.551	0	0.000	0
20080713 01:25	15.0	15.0	15.0	91	13.5	2	5	157	0.00	1011.280	0	0.000	0
20080713 01:30	14.9	14.9	14.9	91	13.4	2	5	157	0.00	1010.975	0	0.000	0
20080713 01:35	14.8	14.8	14.8	91	13.3	0	3	157	0.00	1010.603	0	0.000	0
20080713 01:40	14.7	14.7	14.7	91	13.3	2	5	157	0.00	1010.535	0	0.000	0
20080713 01:45	14.7	14.7	14.7	92	13.4	2	5	157	0.00	1010.332	0	0.000	0
20080713 01:50	14.7	14.7	14.7	92	13.4	2	3	157	0.00	1010.163	0	0.000	0
20080713 01:55	14.6	14.6	14.6	92	13.3	2	5	157	0.00	1010.196	0	0.000	0
20080713 02:00	14.7	14.7	14.7	92	13.4	2	8	135	0.00	1010.230	0	0.000	0
20080713 02:05	14.7	14.7	14.7	92	13.4	3	8	135	0.00	1010.298	0	0.000	0
20080713 02:10	14.7	14.7	14.7	92	13.4	2	6	135	0.00	1010.400	0	0.000	0
20080713 02:15	14.7	14.7	14.7	92	13.4	2	5	157	0.00	1010.467	0	0.000	0
20080713 02:20	14.7	14.7	14.7	92	13.4	2	8	157	0.00	1010.569	0	0.000	0
20080713 02:25	14.7	14.7	14.7	92	13.4	0	5	157	0.00	1010.637	0	0.000	0
20080713 02:30	14.7	14.7	14.7	92	13.4	0	3	157	0.00	1010.569	0	0.000	0
20080713 02:35	14.7	14.7	14.7	91	13.3	0	2	157	0.00	1010.535	0	0.000	0
20080713 02:40	14.7	14.7	14.7	91	13.3	0	2	157	0.00	1010.400	0	0.000	0
20080713 02:45	14.7	14.7	14.7	92	13.4	0	3	157	0.00	1010.298	0	0.000	0
20080713 02:50	14.7	14.7	14.7	92	13.4	0	3	157	0.00	1010.129	0	0.000	0
20080713 02:55	14.7	14.7	14.7	92	13.4	2	5	157	0.20	1009.892	0	0.000	0
20080713 03:00	14.7	14.7	14.7	92	13.4	0	2	157	0.00	1009.959	0	0.000	0
20080713 03:05	14.7	14.7	14.7	92	13.4	0	0	157	0.00	1009.993	0	0.000	0
20080713 03:10	14.7	14.7	14.7	93	13.5	0	0	157	0.00	1009.993	0	0.000	0
20080713 03:15	14.7	14.7	14.7	93	13.5	0	2	157	0.00	1009.959	0	0.000	0
20080713 03:20	14.7	14.7	14.7	93	13.5	0	0	157	0.00	1009.892	0	0.000	0
20080713 03:25	14.7	14.7	14.7	93	13.5	0	2	157	0.00	1009.824	0	0.000	0
20080713 03:30	14.6	14.6	14.6	93	13.4	2	6	157	0.00	1009.756	0	0.000	0
20080713 03:35	14.5	14.5	14.5	93	13.4	2	5	157	0.20	1009.756	0	0.000	0
20080713 03:40	14.4	14.4	14.4	93	13.3	2	5	157	0.00	1009.790	0	0.000	0
20080713 03:45	14.3	14.3	14.3	93	13.2	5	8	45	0.00	1009.655	0	0.000	0
20080713 03:50	14.3	14.3	14.3	93	13.2	3	6	45	0.00	1009.688	0	0.000	0
20080713 03:55	14.3	14.3	14.3	93	13.2	2	5	45	0.00	1009.587	0	0.000	0
20080713 04:00	14.3	14.3	14.3	93	13.2	3	8	22	0.00	1009.418	0	0.000	0
20080713 04:05	14.1	14.1	14.1	93	13.0	6	10	45	0.00	1009.316	0	0.000	0
20080713 04:10	14.1	14.1	14.1	93	12.9	2	6	45	0.00	1009.519	0	0.000	0
20080713 04:15	14.1	14.1	14.1	93	12.9	2	6	22	0.00	1009.553	0	0.000	0
20080713 04:20	14.0	14.0	14.0	94	13.0	2	5	22	0.00	1009.485	0	0.000	0
20080713 04:25	14.0	14.0	14.0	93	12.9	2	5	22	0.00	1009.418	0	0.000	0
20080713 04:30	14.0	14.0	14.0	93	12.9	3	5	22	0.00	1009.316	0	0.000	0
20080713 04:35	14.0	14.0	14.0	94	13.0	2	5	22	0.00	1009.248	0	0.000	0
20080713 04:40	14.0	14.0	14.0	94	13.0	2	5	22	0.00	1009.214	0	0.000	0
20080713 04:45	13.9	13.9	13.9	94	13.0	3	5	22	0.00	1009.384	0	0.000	0
20080713 04:50	13.9	13.9	13.9	94	13.0	2	5	22	0.00	1009.316	0	0.000	0
20080713 04:55	13.9	13.9	13.9	94	13.0	3	6	22	0.00	1009.451	0	0.000	0
20080713 05:00	13.9	13.9	13.9	94	13.0	3	6	22	0.00	1009.418	0	0.000	0
20080713 05:05	13.9	13.9	13.9	94	13.0	2	5	22	0.00	1009.316	0	0.000	0
20080713 05:10	13.9	13.9	13.9	94	13.0	3	6	22	0.00	1009.214	0	0.000	0
20080713 05:15	13.9	13.9	13.9	94	13.0	3	6	22	0.00	1009.181	0	0.000	0
20080713 05:20	13.9	13.9	13.9	94	13.0	3	6	45	0.00	1009.079	0	0.000	0
20080713 05:25	13.9	13.9	13.9	94	13.0	3	6	45	0.00	1009.113	0	0.000	0
20080713 05:30	14.0	14.0	14.0	94	13.0	2	5	45	0.00	1009.011	0	0.000	0
20080713 05:35	14.0	14.0	14.0	94	13.0	3	5	45	0.00	1008.977	0	0.000	0
20080713 05:40	14.0	14.0	14.0	94	13.0	5	6	45	0.00	1008.808	0	0.000	0
20080713 05:45	14.1	14.1	14.1	94	13.1	5	8	45	0.00	1008.706	1	0.000	0
20080713 05:50	14.1	14.1	14.1	94	13.1	5	8	45	0.00	1008.571	5	0.000	0
20080713 05:55	14.0	14.0	14.0	94	13.0	5	10	45	0.00	1008.605	6	0.000	0
20080713 06:00	14.1	14.1	14.1	94	13.1	5	10	45	0.00	1008.537	5	0.000	0
20080713 06:05	14.1	14.1	14.1	94	13.1	5	8	22	0.00	1008.503	5	0.000	0
20080713 06:10	14.1	14.1	14.1	94	13.2	5	8	45	0.00	1008.571	5	0.000	0
20080713 06:15	14.1	14.1	14.1	94	13.2	6	11	67	0.00	1008.131	5	0.000	0
20080713 06:20	14.2	14.2	14.2	94	13.2	6	10	67	0.00	1008.232	6	0.000	0
20080713 06:25	14.2	14.2	14.2	94	13.2	5	8	45	0.00	1008.131	7	0.000	0
20080713 06:30	14.2	14.2	14.2	94	13.3	5	8	45	0.00	1008.198	5	0.000	0
20080713 06:35	14.2	14.2	14.2	94	13.3	6	10	67	0.00	1007.928	7	0.000	0
20080713 06:40	14.2	14.2	14.2	94	13.3	5	8	67	0.00	1008.097	8	0.000	0
20080713 06:45	14.2	14.2	14.2	94	13.3	5	10	67	0.00	1008.063	12	0.000	0
20080713 06:50	14.2	14.2	14.2	93	13.1	6	14	67	0.00	1007.826	21	0.000	0
20080713 06:55	14.2	14.2	14.2	93	13.1	6	11	45	0.00	1007.555	41	0.000	0
20080713 07:00	14.2	14.2	14.2	92	12.9	8	16	67	0.00	1007.724	53	0.000	0
20080713 07:05	14.2	14.2	14.2	92	12.9	6	14	45	0.00	1007.860	69	0.000	0
20080713 07:10	14.2	14.2	14.2	92	12.9	6	11	67	0.00	1007.961	75	0.000	0
20080713 07:15	14.3	14.3	14.3	91	12.8	5	8	67	0.00	1007.961	83	0.000	0
20080713 07:20	14.3	14.3	14.3	91	12.8	3	6	67	0.00	1007.894	87	0.000	0
20080713 07:25	14.3	14.3	14.3	91	12.8	3	6	67	0.00	1008.063	79	0.000	0
20080713 07:30	14.3	14.3	14.3	90	12.7	5	10	67	0.00	1007.961	68	0.000	0
20080713 07:35	14.3	14.3	14.3	90	12.7	5	10	67	0.00	1007.792	59	0.000	0
20080713 07:40	14.2	14.2	14.2	90	12.6	6	16	67	0.00	1007.589	54	0.000	0
20080713 07:45	14.2	14.2	14.2	90	12.5	6	11	67	0.00	1007.521	58	0.000	0
20080713 07:50	14.1	14.1	14.1	90	12.4	6	10	67	0.00	1007.453	64	0.000	0
20080713 07:55	14.0	14.0	14.0	89	12.2	6	11	67	0.00	1007.555	68	0.000	0
20080713 08:00	14.0	14.0	14.0	90	12.4	5	6	67	0.00	1007.555	71	0.040	0
20080713 08:05	14.0	14.0	14.0	90	12.4	5	10	45	0.00	1007.589	72	0.000	0
20080713 08:10	14.1	14.1	14.1	91	12.6	3	6	67	0.00	1007.758	68	0.000	0
20080713 08:15	14.1	14.1	14.1	91	12.7	5	10	45	0.00	1007.792	83	0.000	0
20080713 08:20	14.1	14.1	14.1	91	12.7	5	8	45	0.00	1007.894	85	0.000	0
20080713 08:25	14.1	14.1	14.1	91	12.7	5	8	67	0.00	1007.928	68	0.000	0
20080713 08:30	14.1	14.1	14.1	91	12.6	5	8	67	0.00	1007.928	42	0.000	0
20080713 08:35	14.1	14.1	14.1	91	12.6	2	6	45	0.20	1008.198	52	0.000	0
20080713 08:40	14.2	14.2	14.2	92	12.9	5	10	67	0.00	1008.165	81	0.000	0
20080713 08:45	14.2	14.2	14.2	92	12.9	3	6	45	0.00	1008.029	97	0.000	1
20080713 08:50	14.3	14.3	14.3	92	13.0	2	6	45	0.00	1007.995	82	0.000	0
20080713 08:55	14.3	14.3	14.3	91	12.9	5	8	45	0.00	1007.995	99	0.000	1
20080713 09:00	14.3	14.3	14.3	91	12.9	5	10	45	0.00	1007.995	66	0.040	0
20080713 09:05	14.4	14.4	14.4	91	12.9	5	8	22	0.00	1007.961	49	0.000	0
20080713 09:10	14.4	14.4	14.4	91	12.9	5	8	22	0.00	1007.826	62	0.000	0
20080713 09:15	14.4	14.4	14.4	91	12.9	5	10	22	0.00	1007.792	66	0.000	0
20080713 09:20	14.4	14.4	14.4	91	13.0	6	10	22	0.00	1007.792	56	0.000	0
20080713 09:25	14.4	14.4	14.4	92	13.2	3	8	0	0.00	1007.724	60	0.000	0
20080713 09:30	14.6	14.6	14.6	92	13.3	2	5	0	0.00	1007.826	64	0.000	0
20080713 09:35	14.6	14.6	14.6	92	13.3	2	6	22	0.00	1008.029	51	0.000	0
20080713 09:40	14.6	14.6	14.6	92	13.3	0	5	292	0.20	1008.029	35	0.000	0
20080713 09:45	14.5	14.5	14.5	92	13.2	2	5	22	0.00	1007.928	35	0.000	0
20080713 09:50	14.4	14.4	14.4	91	13.0	2	6	0	0.00	1007.961	40	0.000	0
20080713 09:55	14.3	14.3	14.3	92	13.0	2	6	22	0.20	1008.029	33	0.000	0
20080713 10:00	14.3	14.3	14.3	91	12.8	2	8	337	0.00	1008.232	34	0.020	0
20080713 10:05	14.2	14.2	14.2	92	12.9	0	3	270	0.00	1008.639	30	0.000	0
20080713 10:10	14.2	14.2	14.2	92	12.9	2	6	292	0.00	1008.706	26	0.000	0
20080713 10:15	14.1	14.1	14.1	92	12.8	3	6	292	0.00	1008.706	30	0.000	0
20080713 10:20	14.1	14.1	14.1	92	12.8	3	6	292	0.20	1008.673	41	0.000	0
20080713 10:25	14.1	14.1	14.1	92	12.8	5	11	292	0.20	1008.740	51	0.000	0
20080713 10:30	14.1	14.1	14.1	93	12.9	8	16	292	0.20	1008.673	52	0.000	0
20080713 10:35	14.1	14.1	14.1	93	12.9	8	21	292	0.00	1008.537	53	0.000	0
20080713 10:40	14.0	14.0	14.0	93	12.9	3	8	292	0.40	1008.673	53	0.000	0
20080713 10:45	13.9	13.9	13.9	93	12.8	6	11	292	0.20	1008.842	60	0.000	0
20080713 10:50	13.9	13.9	13.9	93	12.8	5	13	292	0.40	1008.977	69	0.000	1
20080713 10:55	13.9	13.9	13.9	93	12.8	3	11	292	0.20	1009.045	52	0.000	0
20080713 11:00	13.8	13.8	13.8	93	12.7	3	11	292	0.20	1008.977	56	0.020	0
20080713 11:05	13.8	13.8	13.8	93	12.7	3	11	337	0.20	1009.316	52	0.000	0
20080713 11:10	13.8	13.8	13.8	93	12.7	0	5	22	0.00	1009.485	40	0.000	0
20080713 11:15	13.8	13.8	13.8	93	12.7	2	5	0	0.20	1009.485	53	0.000	0
20080713 11:20	13.8	13.8	13.8	93	12.7	0	5	0	0.20	1009.553	58	0.000	0
20080713 11:25	13.8	13.8	13.8	93	12.7	2	8	0	0.20	1009.688	60	0.000	0
20080713 11:30	13.8	13.8	13.8	93	12.7	2	6	22	0.20	1009.790	45	0.000	0
20080713 11:35	13.7	13.7	13.7	93	12.6	2	6	337	0.20	1009.688	65	0.000	0
20080713 11:40	13.7	13.7	13.7	93	12.6	2	6	22	0.40	1009.790	69	0.000	1
20080713 11:45	13.6	13.6	13.6	93	12.5	2	11	22	0.20	1009.824	64	0.000	0
20080713 11:50	13.6	13.6	13.6	93	12.5	2	10	292	0.20	1009.824	81	0.000	1
20080713 11:55	13.6	13.6	13.6	93	12.5	3	8	292	0.20	1010.027	65	0.000	1
20080713 12:00	13.6	13.6	13.6	93	12.4	2	10	292	0.20	1010.196	48	0.020	0
20080713 12:05	13.5	13.5	13.5	93	12.4	2	8	292	0.00	1010.230	36	0.000	0
20080713 12:10	13.6	13.6	13.6	93	12.4	0	5	292	0.20	1010.230	39	0.000	0
20080713 12:15	13.5	13.5	13.5	93	12.4	3	8	22	0.40	1010.264	47	0.000	0
20080713 12:20	13.5	13.5	13.5	93	12.4	2	8	22	0.20	1010.433	44	0.000	0
20080713 12:25	13.4	13.4	13.4	93	12.3	2	8	22	0.20	1010.535	47	0.000	0
20080713 12:30	13.4	13.4	13.4	93	12.3	2	5	22	0.40	1010.603	49	0.000	0
20080713 12:35	13.4	13.4	13.4	94	12.5	2	5	22	0.20	1010.637	51	0.000	0
20080713 12:40	13.5	13.5	13.5	94	12.6	2	5	22	0.20	1010.535	63	0.000	1
20080713 12:45	13.4	13.4	13.4	94	12.5	5	16	22	0.20	1010.332	79	0.000	1
20080713 12:50	13.5	13.5	13.5	94	12.6	2	8	22	0.20	1010.535	113	0.000	1
20080713 12:55	13.5	13.5	13.5	93	12.4	2	8	292	0.20	1010.738	107	0.000	1
20080713 13:00	13.5	13.5	13.5	93	12.4	2	6	292	0.20	1010.975	63	0.020	0
20080713 13:05	13.4	13.4	13.4	93	12.3	8	19	292	0.00	1011.111	53	0.000	0
20080713 13:10	13.3	13.3	13.3	93	12.2	3	11	292	0.20	1011.246	66	0.000	1
20080713 13:15	13.3	13.3	13.3	93	12.2	3	6	292	0.20	1011.314	43	0.000	0
20080713 13:20	13.3	13.3	13.3	93	12.2	3	8	292	0.00	1011.314	37	0.000	0
20080713 13:25	13.3	13.3	13.3	93	12.2	2	6	292	0.00	1011.280	44	0.000	0
20080713 13:30	13.4	13.4	13.4	93	12.3	0	5	292	0.00	1011.179	38	0.000	0
20080713 13:35	13.4	13.4	13.4	93	12.3	2	5	292	0.20	1011.551	36	0.000	0
20080713 13:40	13.4	13.4	13.4	93	12.3	5	8	292	0.40	1011.653	37	0.000	0
20080713 13:45	13.4	13.4	13.4	93	12.3	3	8	292	0.00	1011.720	29	0.000	0
20080713 13:50	13.4	13.4	13.4	93	12.3	6	11	270	0.20	1011.686	26	0.000	0
20080713 13:55	13.4	13.4	13.4	93	12.3	6	16	270	0.00	1011.585	67	0.000	0
20080713 14:00	13.5	13.5	13.5	93	12.4	8	16	292	0.20	1011.653	122	0.020	1
20080713 14:05	13.6	13.6	13.6	93	12.5	8	23	292	0.00	1011.585	173	0.000	2
20080713 14:10	13.7	13.7	13.7	94	12.8	8	18	292	0.20	1011.653	191	0.000	2
20080713 14:15	13.7	13.7	13.7	93	12.6	11	19	292	0.00	1011.856	128	0.000	1
20080713 14:20	13.7	13.7	13.7	93	12.6	6	14	270	0.20	1012.127	79	0.000	1
20080713 14:25	13.7	13.7	13.7	93	12.6	5	11	292	0.00	1012.127	77	0.000	1
20080713 14:30	13.7	13.7	13.7	92	12.4	8	14	292	0.20	1012.025	135	0.000	1
20080713 14:35	13.7	13.7	13.7	92	12.4	6	14	292	0.00	1012.127	168	0.000	2
20080713 14:40	13.8	13.8	13.8	93	12.7	5	10	292	0.00	1012.161	135	0.000	1
20080713 14:45	13.8	13.8	13.8	92	12.6	6	14	292	0.00	1012.296	134	0.000	1
20080713 14:50	13.8	13.8	13.8	92	12.6	5	14	292	0.20	1012.431	91	0.000	1
20080713 14:55	13.8	13.8	13.8	92	12.5	6	13	292	0.00	1012.499	56	0.000	0
20080713 15:00	13.8	13.8	13.8	92	12.6	2	10	292	0.00	1012.431	66	0.060	1
20080713 15:05	13.8	13.8	13.8	92	12.6	3	8	292	0.00	1012.465	63	0.000	1
20080713 15:10	13.8	13.8	13.8	92	12.6	5	10	270	0.00	1012.601	62	0.000	1
20080713 15:15	13.8	13.8	13.8	92	12.6	5	6	292	0.20	1012.567	51	0.000	0
20080713 15:20	13.9	13.9	13.9	92	12.6	5	10	292	0.00	1012.635	49	0.000	0
20080713 15:25	13.8	13.8	13.8	92	12.6	5	10	292	0.00	1012.669	51	0.000	0
20080713 15:30	13.8	13.8	13.8	92	12.6	5	10	292	0.20	1012.669	70	0.000	1
20080713 15:35	13.8	13.8	13.8	92	12.6	6	11	270	0.00	1012.736	135	0.000	1
20080713 15:40	13.9	13.9	13.9	92	12.7	5	10	292	0.00	1012.567	176	0.000	2
20080713 15:45	14.0	14.0	14.0	92	12.7	6	10	270	0.00	1012.601	128	0.000	1
20080713 15:50	14.1	14.1	14.1	92	12.8	3	8	270	0.00	1012.533	92	0.000	1
20080713 15:55	14.1	14.1	14.1	92	12.8	6	18	292	0.20	1012.499	88	0.000	1
20080713 16:00	14.0	14.0	14.0	92	12.7	5	8	292	0.00	1012.499	157	0.040	1
20080713 16:05	14.1	14.1	14.1	92	12.8	3	8	292	0.00	1012.499	262	0.000	2
20080713 16:10	14.4	14.4	14.4	93	13.3	3	6	292	0.00	1012.499	368	0.000	3
20080713 16:15	14.7	14.7	14.7	91	13.3	5	11	270	0.00	1012.499	349	0.000	4
20080713 16:20	15.0	15.0	15.0	91	13.5	5	11	292	0.00	1012.431	741	0.000	4
20080713 16:25	15.4	15.4	15.4	88	13.4	5	11	270	0.00	1012.533	452	0.000	4
20080713 16:30	15.6	15.6	15.6	88	13.6	5	11	270	0.00	1012.499	327	0.000	3
20080713 16:35	15.6	15.6	15.6	87	13.5	8	11	270	0.00	1012.330	263	0.000	2
20080713 16:40	15.6	15.6	15.6	86	13.3	5	14	270	0.00	1012.364	263	0.000	2
20080713 16:45	15.6	15.6	15.6	86	13.2	3	10	270	0.00	1012.398	237	0.000	2
20080713 16:50	15.5	15.5	15.5	85	13.0	6	11	292	0.00	1012.398	212	0.000	2
20080713 16:55	15.4	15.4	15.4	85	12.9	6	11	270	0.00	1012.398	186	0.000	1
20080713 17:00	15.4	15.4	15.4	85	12.9	8	14	270	0.00	1012.465	223	0.140	2
20080713 17:05	15.4	15.4	15.4	86	13.1	3	10	270	0.00	1012.431	169	0.000	1
20080713 17:10	15.4	15.4	15.4	85	12.9	6	13	270	0.00	1012.567	141	0.000	1
20080713 17:15	15.3	15.3	15.3	85	12.8	5	11	270	0.00	1012.601	139	0.000	1
20080713 17:20	15.2	15.2	15.2	85	12.7	5	10	247	0.00	1012.736	154	0.000	1
20080713 17:25	15.2	15.2	15.2	85	12.7	5	10	247	0.00	1012.804	153	0.000	1
20080713 17:30	15.0	15.0	15.0	84	12.3	5	10	270	0.00	1012.601	97	0.000	0
20080713 17:35	15.0	15.0	15.0	85	12.5	5	8	270	0.00	1012.635	44	0.000	0
20080713 17:40	15.0	15.0	15.0	87	12.9	3	6	270	0.00	1012.669	77	0.000	0
20080713 17:45	15.0	15.0	15.0	86	12.7	3	8	270	0.00	1012.635	130	0.000	1
20080713 17:50	15.0	15.0	15.0	86	12.7	5	11	270	0.00	1012.601	113	0.000	1
20080713 17:55	15.0	15.0	15.0	87	12.9	5	11	270	0.00	1012.601	117	0.000	1
20080713 18:00	14.9	14.9	14.9	86	12.6	5	10	270	0.00	1012.601	111	0.060	1
20080713 18:05	14.9	14.9	14.9	86	12.6	2	6	270	0.00	1012.601	85	0.000	0
20080713 18:10	14.9	14.9	14.9	86	12.6	3	8	270	0.00	1012.567	75	0.000	0
20080713 18:15	14.9	14.9	14.9	87	12.8	2	5	270	0.00	1012.567	49	0.000	0
20080713 18:20	14.9	14.9	14.9	86	12.6	3	8	292	0.00	1012.635	61	0.000	0
20080713 18:25	14.8	14.8	14.8	86	12.5	2	6	270	0.00	1012.702	53	0.000	0
20080713 18:30	14.8	14.8	14.8	87	12.6	2	5	270	0.00	1012.804	49	0.000	0
20080713 18:35	14.7	14.7	14.7	87	12.6	3	6	270	0.00	1012.770	40	0.000	0
20080713 18:40	14.7	14.7	14.7	88	12.8	2	5	270	0.00	1012.702	48	0.000	0
20080713 18:45	14.7	14.7	14.7	88	12.8	2	5	270	0.00	1012.702	51	0.000	0
20080713 18:50	14.8	14.8	14.8	88	12.8	2	3	270	0.00	1012.736	50	0.000	0
20080713 18:55	14.8	14.8	14.8	88	12.8	2	6	270	0.00	1012.939	36	0.000	0
20080713 19:00	14.8	14.8	14.8	88	12.8	2	3	270	0.00	1012.973	31	0.020	0
20080713 19:05	14.8	14.8	14.8	88	12.9	2	5	270	0.00	1013.007	16	0.000	0
20080713 19:10	14.8	14.8	14.8	88	12.8	2	5	270	0.00	1013.075	10	0.000	0
20080713 19:15	14.7	14.7	14.7	88	12.8	2	5	270	0.00	1013.143	8	0.000	0
20080713 19:20	14.7	14.7	14.7	89	12.9	3	10	270	0.00	1013.109	7	0.000	0
20080713 19:25	14.6	14.6	14.6	89	12.8	3	10	270	0.20	1013.177	15	0.000	0
20080713 19:30	14.3	14.3	14.3	90	12.7	2	5	270	0.20	1013.312	21	0.000	0
20080713 19:35	14.3	14.3	14.3	90	12.7	0	3	247	0.20	1013.244	22	0.000	0
20080713 19:40	14.2	14.2	14.2	91	12.8	0	5	247	0.00	1013.143	22	0.000	0
20080713 19:45	14.2	14.2	14.2	91	12.7	0	3	247	0.20	1013.109	37	0.000	0
20080713 19:50	14.2	14.2	14.2	91	12.7	0	2	247	0.00	1013.143	59	0.000	0
20080713 19:55	14.2	14.2	14.2	92	12.9	0	2	247	0.00	1013.278	76	0.000	0
20080713 20:00	14.2	14.2	14.2	92	12.9	0	5	247	0.20	1013.312	44	0.020	0
20080713 20:05	14.2	14.2	14.2	92	12.9	2	5	247	0.00	1013.177	21	0.000	0
20080713 20:10	14.1	14.1	14.1	92	12.8	3	8	247	0.00	1013.414	6	0.000	0
20080713 20:15	14.0	14.0	14.0	91	12.6	6	16	292	0.00	1013.583	0	0.000	0
20080713 20:20	13.8	13.8	13.8	90	12.2	3	11	292	0.20	1013.617	0	0.000	0
20080713 20:25	13.7	13.7	13.7	90	12.1	0	3	292	0.40	1013.684	0	0.000	0
20080713 20:30	13.4	13.4	13.4	90	11.8	0	2	292	0.20	1013.786	0	0.000	0
20080713 20:35	13.2	13.2	13.2	90	11.6	0	0	292	0.60	1013.854	0	0.000	0
20080713 20:40	13.1	13.1	13.1	90	11.5	0	0	292	0.40	1013.922	0	0.000	0
20080713 20:45	12.9	12.9	12.9	91	11.5	0	0	292	0.20	1014.057	0	0.000	0
20080713 20:50	12.8	12.8	12.8	91	11.4	0	3	292	0.20	1014.057	0	0.000	0
20080713 20:55	12.8	12.8	12.8	92	11.5	2	5	292	0.40	1014.091	0	0.000	0
20080713 21:00	12.7	12.7	12.7	92	11.4	3	6	292	0.40	1014.159	0	0.000	0
20080713 21:05	12.6	12.6	12.6	92	11.3	3	8	292	0.20	1014.192	0	0.000	0
20080713 21:10	12.6	12.6	12.6	92	11.3	3	6	292	0.20	1014.328	0	0.000	0
20080713 21:15	12.5	12.5	12.5	93	11.4	0	3	292	0.20	1014.260	0	0.000	0
20080713 21:20	12.5	12.5	12.5	93	11.4	0	3	292	0.00	1014.260	0	0.000	0
20080713 21:25	12.4	12.4	12.4	93	11.3	0	3	292	0.20	1014.294	0	0.000	0
20080713 21:30	12.4	12.4	12.4	93	11.3	2	5	292	0.00	1014.497	0	0.000	0
20080713 21:35	12.4	12.4	12.4	93	11.3	2	5	292	0.00	1014.531	0	0.000	0
20080713 21:40	12.4	12.4	12.4	93	11.3	0	3	292	0.00	1014.531	0	0.000	0
20080713 21:45	12.4	12.4	12.4	93	11.3	0	3	292	0.00	1014.497	0	0.000	0
20080713 21:50	12.4	12.4	12.4	93	11.3	0	3	292	0.00	1014.565	0	0.000	0
20080713 21:55	12.4	12.4	12.4	93	11.3	0	3	292	0.00	1014.531	0	0.000	0
20080713 22:00	12.4	12.4	12.4	93	11.3	0	3	292	0.00	1014.463	0	0.000	0
20080713 22:05	12.4	12.4	12.4	93	11.3	0	3	292	0.00	1014.565	0	0.000	0
20080713 22:10	12.4	12.4	12.4	93	11.3	0	3	292	0.00	1014.565	0	0.000	0
20080713 22:15	12.5	12.5	12.5	94	11.6	0	3	292	0.00	1014.599	0	0.000	0
20080713 22:20	12.5	12.5	12.5	94	11.6	0	3	292	0.00	1014.734	0	0.000	0
20080713 22:25	12.6	12.6	12.6	94	11.6	2	6	292	0.20	1014.836	0	0.000	0
20080713 22:30	12.6	12.6	12.6	94	11.6	2	5	292	0.20	1014.870	0	0.000	0
20080713 22:35	12.6	12.6	12.6	94	11.7	0	3	292	0.00	1014.971	0	0.000	0
20080713 22:40	12.6	12.6	12.6	94	11.7	0	3	292	0.00	1015.073	0	0.000	0
20080713 22:45	12.6	12.6	12.6	94	11.6	0	2	292	0.00	1015.039	0	0.000	0
20080713 22:50	12.6	12.6	12.6	94	11.6	0	2	292	0.00	1015.039	0	0.000	0
20080713 22:55	12.6	12.6	12.6	94	11.6	0	3	292	0.00	1015.107	0	0.000	0
20080713 23:00	12.6	12.6	12.6	94	11.6	0	2	292	0.00	1015.107	0	0.000	0
20080713 23:05	12.6	12.6	12.6	94	11.6	0	5	292	0.00	1015.276	0	0.000	0
20080713 23:10	12.6	12.6	12.6	94	11.6	0	5	292	0.20	1015.378	0	0.000	0
20080713 23:15	12.6	12.6	12.6	94	11.6	0	3	292	0.00	1015.378	0	0.000	0
20080713 23:20	12.5	12.5	12.5	94	11.6	2	5	292	0.20	1015.445	0	0.000	0
20080713 23:25	12.5	12.5	12.5	94	11.6	0	3	292	0.20	1015.547	0	0.000	0
20080713 23:30	12.5	12.5	12.5	94	11.6	0	3	292	0.20	1015.682	0	0.000	0
20080713 23:35	12.5	12.5	12.5	93	11.4	2	5	292	0.20	1015.716	0	0.000	0
20080713 23:40	12.5	12.5	12.5	94	11.6	2	5	292	0.00	1015.716	0	0.000	0
20080713 23:45	12.5	12.5	12.5	94	11.6	2	5	270	0.20	1015.750	0	0.000	0
20080713 23:50	12.5	12.5	12.5	94	11.6	2	5	270	0.20	1015.750	0	0.000	0
20080713 23:55	12.5	12.5	12.5	94	11.6	2	6	270	0.00	1015.818	0	0.000	0
20080713 24:00	12.5	12.5	12.5	93	11.4	2	6	270	0.20	1015.818	0	0.000	0



Please note the license to use and transfer of this data:
http://creativecommons.org/licenses/by-nc-sa/3.0/deed.en

Bitte beachten sie die Lizenz zur Verwertung und Weitergabe der Daten:
http://creativecommons.org/licenses/by-nc-sa/3.0/deed.de

zurück zur Übersicht der Archivdaten (Monats und Tagesdaten)

Cookies helfen bei der Bereitstellung von Inhalten. Durch die Nutzung dieser Seiten erklärst du dich damit einverstanden, dass Cookies auf deinem Rechner gespeichert werden. Weitere Information